sensor_id;sensor_type;location;lat;lon;timestamp;pressure;altitude;pressure_sealevel;temperature;humidity
42411;BME280;28056;51.112;0.984;2024-01-06T00:00:36;99924.37;;;2.23;100.00
42411;BME280;28056;51.112;0.984;2024-01-06T00:03:03;99924.38;;;2.34;100.00
42411;BME280;28056;51.112;0.984;2024-01-06T00:05:31;99928.80;;;2.21;100.00
42411;BME280;28056;51.112;0.984;2024-01-06T00:07:58;99930.09;;;1.98;100.00
42411;BME280;28056;51.112;0.984;2024-01-06T00:10:25;99932.69;;;2.71;100.00
42411;BME280;28056;51.112;0.984;2024-01-06T00:12:52;99935.91;;;2.44;100.00
42411;BME280;28056;51.112;0.984;2024-01-06T00:15:19;99938.97;;;2.55;100.00
42411;BME280;28056;51.112;0.984;2024-01-06T00:17:46;99939.48;;;1.80;100.00
42411;BME280;28056;51.112;0.984;2024-01-06T00:20:13;99940.28;;;1.72;100.00
42411;BME280;28056;51.112;0.984;2024-01-06T00:22:41;99939.61;;;2.03;100.00
42411;BME280;28056;51.112;0.984;2024-01-06T00:25:09;99940.34;;;1.79;100.00
42411;BME280;28056;51.112;0.984;2024-01-06T00:27:36;99941.61;;;1.98;100.00
42411;BME280;28056;51.112;0.984;2024-01-06T00:30:04;99941.44;;;2.09;100.00
42411;BME280;28056;51.112;0.984;2024-01-06T00:32:32;99943.89;;;1.70;100.00
42411;BME280;28056;51.112;0.984;2024-01-06T00:35:00;99949.18;;;1.77;100.00
42411;BME280;28056;51.112;0.984;2024-01-06T00:37:28;99954.23;;;2.04;100.00
42411;BME280;28056;51.112;0.984;2024-01-06T00:40:00;99955.05;;;1.90;100.00
42411;BME280;28056;51.112;0.984;2024-01-06T00:42:28;99953.27;;;1.62;100.00
42411;BME280;28056;51.112;0.984;2024-01-06T00:44:56;99960.48;;;1.78;100.00
42411;BME280;28056;51.112;0.984;2024-01-06T00:47:23;99958.40;;;2.41;100.00
42411;BME280;28056;51.112;0.984;2024-01-06T00:49:50;99960.63;;;1.97;100.00
42411;BME280;28056;51.112;0.984;2024-01-06T00:52:17;99960.21;;;2.01;100.00
42411;BME280;28056;51.112;0.984;2024-01-06T00:54:44;99966.07;;;2.25;100.00
42411;BME280;28056;51.112;0.984;2024-01-06T00:57:11;99966.52;;;2.07;100.00
42411;BME280;28056;51.112;0.984;2024-01-06T00:59:38;99971.51;;;1.67;100.00
42411;BME280;28056;51.112;0.984;2024-01-06T01:04:51;99976.78;;;2.23;100.00
42411;BME280;28056;51.112;0.984;2024-01-06T01:07:18;99977.88;;;2.68;100.00
42411;BME280;28056;51.112;0.984;2024-01-06T01:09:45;99977.45;;;2.67;100.00
42411;BME280;28056;51.112;0.984;2024-01-06T01:12:12;99978.31;;;2.22;100.00
42411;BME280;28056;51.112;0.984;2024-01-06T01:14:40;99981.83;;;2.65;100.00
42411;BME280;28056;51.112;0.984;2024-01-06T01:17:07;99979.44;;;2.00;100.00
42411;BME280;28056;51.112;0.984;2024-01-06T01:19:34;99983.05;;;2.26;100.00
42411;BME280;28056;51.112;0.984;2024-01-06T01:22:01;99980.97;;;2.10;100.00
42411;BME280;28056;51.112;0.984;2024-01-06T01:24:29;99984.09;;;2.21;100.00
42411;BME280;28056;51.112;0.984;2024-01-06T01:26:56;99984.78;;;2.10;100.00
42411;BME280;28056;51.112;0.984;2024-01-06T01:29:23;99986.93;;;1.57;100.00
42411;BME280;28056;51.112;0.984;2024-01-06T01:31:50;99990.44;;;1.47;100.00
42411;BME280;28056;51.112;0.984;2024-01-06T01:34:18;99992.96;;;1.46;100.00
42411;BME280;28056;51.112;0.984;2024-01-06T01:36:45;99992.92;;;2.00;100.00
42411;BME280;28056;51.112;0.984;2024-01-06T01:39:12;99994.46;;;1.96;100.00
42411;BME280;28056;51.112;0.984;2024-01-06T01:41:40;100001.31;;;1.65;100.00
42411;BME280;28056;51.112;0.984;2024-01-06T01:44:13;100002.51;;;1.25;100.00
42411;BME280;28056;51.112;0.984;2024-01-06T01:46:41;100003.78;;;1.97;100.00
42411;BME280;28056;51.112;0.984;2024-01-06T01:49:08;100002.75;;;0.94;100.00
42411;BME280;28056;51.112;0.984;2024-01-06T01:51:37;100009.77;;;1.60;100.00
42411;BME280;28056;51.112;0.984;2024-01-06T01:54:05;100013.05;;;1.25;100.00
42411;BME280;28056;51.112;0.984;2024-01-06T01:56:33;100019.56;;;1.56;100.00
42411;BME280;28056;51.112;0.984;2024-01-06T01:59:04;100023.31;;;1.60;100.00
42411;BME280;28056;51.112;0.984;2024-01-06T02:01:33;100030.77;;;2.36;100.00
42411;BME280;28056;51.112;0.984;2024-01-06T02:04:01;100030.29;;;2.66;100.00
42411;BME280;28056;51.112;0.984;2024-01-06T02:06:29;100031.28;;;2.24;100.00
42411;BME280;28056;51.112;0.984;2024-01-06T02:08:57;100033.97;;;2.53;100.00
42411;BME280;28056;51.112;0.984;2024-01-06T02:11:25;100036.96;;;2.35;100.00
42411;BME280;28056;51.112;0.984;2024-01-06T02:13:52;100043.77;;;2.27;100.00
42411;BME280;28056;51.112;0.984;2024-01-06T02:16:25;100046.15;;;2.24;100.00
42411;BME280;28056;51.112;0.984;2024-01-06T02:18:53;100051.56;;;2.10;100.00
42411;BME280;28056;51.112;0.984;2024-01-06T02:21:21;100056.63;;;2.17;100.00
42411;BME280;28056;51.112;0.984;2024-01-06T02:23:49;100053.17;;;2.37;100.00
42411;BME280;28056;51.112;0.984;2024-01-06T02:26:17;100057.56;;;2.53;100.00
42411;BME280;28056;51.112;0.984;2024-01-06T02:28:45;100060.82;;;2.60;100.00
42411;BME280;28056;51.112;0.984;2024-01-06T02:31:12;100061.86;;;2.82;100.00
42411;BME280;28056;51.112;0.984;2024-01-06T02:33:40;100064.89;;;2.05;100.00
42411;BME280;28056;51.112;0.984;2024-01-06T02:36:07;100060.76;;;2.43;100.00
42411;BME280;28056;51.112;0.984;2024-01-06T02:38:35;100062.63;;;1.95;100.00
42411;BME280;28056;51.112;0.984;2024-01-06T02:41:02;100064.50;;;1.86;100.00
42411;BME280;28056;51.112;0.984;2024-01-06T02:43:30;100070.78;;;2.29;100.00
42411;BME280;28056;51.112;0.984;2024-01-06T02:45:57;100066.69;;;2.29;100.00
42411;BME280;28056;51.112;0.984;2024-01-06T02:48:24;100071.46;;;2.74;100.00
42411;BME280;28056;51.112;0.984;2024-01-06T02:50:51;100071.95;;;3.54;100.00
42411;BME280;28056;51.112;0.984;2024-01-06T02:53:18;100070.76;;;2.56;100.00
42411;BME280;28056;51.112;0.984;2024-01-06T02:55:45;100079.98;;;2.41;100.00
42411;BME280;28056;51.112;0.984;2024-01-06T02:58:13;100082.19;;;2.67;100.00
42411;BME280;28056;51.112;0.984;2024-01-06T03:00:40;100089.91;;;2.34;100.00
42411;BME280;28056;51.112;0.984;2024-01-06T03:03:07;100095.62;;;2.22;100.00
42411;BME280;28056;51.112;0.984;2024-01-06T03:05:36;100105.64;;;2.58;100.00
42411;BME280;28056;51.112;0.984;2024-01-06T03:08:04;100099.91;;;2.84;100.00
42411;BME280;28056;51.112;0.984;2024-01-06T03:10:31;100102.24;;;2.64;100.00
42411;BME280;28056;51.112;0.984;2024-01-06T03:12:59;100106.36;;;2.81;100.00
42411;BME280;28056;51.112;0.984;2024-01-06T03:15:27;100111.76;;;2.17;100.00
42411;BME280;28056;51.112;0.984;2024-01-06T03:17:54;100110.64;;;2.38;100.00
42411;BME280;28056;51.112;0.984;2024-01-06T03:20:21;100112.09;;;2.27;100.00
42411;BME280;28056;51.112;0.984;2024-01-06T03:22:48;100110.94;;;1.64;100.00
42411;BME280;28056;51.112;0.984;2024-01-06T03:25:15;100117.53;;;2.60;100.00
42411;BME280;28056;51.112;0.984;2024-01-06T03:27:47;100105.84;;;3.20;100.00
42411;BME280;28056;51.112;0.984;2024-01-06T03:30:14;100118.18;;;2.25;100.00
42411;BME280;28056;51.112;0.984;2024-01-06T03:32:42;100113.05;;;3.61;100.00
42411;BME280;28056;51.112;0.984;2024-01-06T03:35:10;100116.69;;;3.59;100.00
42411;BME280;28056;51.112;0.984;2024-01-06T03:37:37;100121.24;;;3.95;100.00
42411;BME280;28056;51.112;0.984;2024-01-06T03:40:05;100119.93;;;3.30;100.00
42411;BME280;28056;51.112;0.984;2024-01-06T03:42:33;100120.47;;;3.83;100.00
42411;BME280;28056;51.112;0.984;2024-01-06T03:45:00;100118.45;;;4.13;100.00
42411;BME280;28056;51.112;0.984;2024-01-06T03:47:27;100120.71;;;3.16;100.00
42411;BME280;28056;51.112;0.984;2024-01-06T03:49:54;100118.19;;;3.36;100.00
42411;BME280;28056;51.112;0.984;2024-01-06T03:52:21;100119.87;;;4.28;100.00
42411;BME280;28056;51.112;0.984;2024-01-06T03:54:48;100122.70;;;4.48;100.00
42411;BME280;28056;51.112;0.984;2024-01-06T03:57:16;100126.90;;;3.69;100.00
42411;BME280;28056;51.112;0.984;2024-01-06T03:59:43;100128.47;;;3.24;100.00
42411;BME280;28056;51.112;0.984;2024-01-06T04:02:10;100133.27;;;3.63;100.00
42411;BME280;28056;51.112;0.984;2024-01-06T04:04:41;100134.04;;;3.83;100.00
42411;BME280;28056;51.112;0.984;2024-01-06T04:07:09;100138.86;;;2.93;100.00
42411;BME280;28056;51.112;0.984;2024-01-06T04:09:36;100141.07;;;3.48;100.00
42411;BME280;28056;51.112;0.984;2024-01-06T04:12:04;100146.25;;;3.47;100.00
42411;BME280;28056;51.112;0.984;2024-01-06T04:14:32;100142.66;;;3.43;100.00
42411;BME280;28056;51.112;0.984;2024-01-06T04:16:59;100135.69;;;4.23;100.00
42411;BME280;28056;51.112;0.984;2024-01-06T04:19:26;100136.98;;;4.32;100.00
42411;BME280;28056;51.112;0.984;2024-01-06T04:21:53;100135.79;;;4.16;100.00
42411;BME280;28056;51.112;0.984;2024-01-06T04:24:25;100138.80;;;4.85;100.00
42411;BME280;28056;51.112;0.984;2024-01-06T04:26:52;100144.35;;;4.35;100.00
42411;BME280;28056;51.112;0.984;2024-01-06T04:29:19;100148.27;;;5.04;99.46
42411;BME280;28056;51.112;0.984;2024-01-06T04:31:47;100147.33;;;4.52;100.00
42411;BME280;28056;51.112;0.984;2024-01-06T04:34:14;100154.08;;;4.96;100.00
42411;BME280;28056;51.112;0.984;2024-01-06T04:36:42;100148.47;;;3.66;100.00
42411;BME280;28056;51.112;0.984;2024-01-06T04:39:10;100155.81;;;3.69;100.00
42411;BME280;28056;51.112;0.984;2024-01-06T04:41:37;100153.99;;;4.29;100.00
42411;BME280;28056;51.112;0.984;2024-01-06T04:44:04;100155.97;;;3.83;100.00
42411;BME280;28056;51.112;0.984;2024-01-06T04:46:32;100157.12;;;3.85;100.00
42411;BME280;28056;51.112;0.984;2024-01-06T04:49:00;100158.90;;;3.69;100.00
42411;BME280;28056;51.112;0.984;2024-01-06T04:51:27;100160.81;;;3.47;100.00
42411;BME280;28056;51.112;0.984;2024-01-06T04:53:55;100167.36;;;3.66;100.00
42411;BME280;28056;51.112;0.984;2024-01-06T04:56:22;100168.80;;;3.70;100.00
42411;BME280;28056;51.112;0.984;2024-01-06T04:58:49;100166.60;;;4.16;100.00
42411;BME280;28056;51.112;0.984;2024-01-06T05:01:17;100168.90;;;3.40;100.00
42411;BME280;28056;51.112;0.984;2024-01-06T05:03:44;100174.21;;;3.65;100.00
42411;BME280;28056;51.112;0.984;2024-01-06T05:06:11;100174.93;;;3.86;100.00
42411;BME280;28056;51.112;0.984;2024-01-06T05:08:38;100171.49;;;3.68;100.00
42411;BME280;28056;51.112;0.984;2024-01-06T05:11:06;100170.29;;;4.40;100.00
42411;BME280;28056;51.112;0.984;2024-01-06T05:13:33;100173.19;;;3.91;100.00
42411;BME280;28056;51.112;0.984;2024-01-06T05:16:00;100181.26;;;4.00;100.00
42411;BME280;28056;51.112;0.984;2024-01-06T05:18:28;100185.91;;;3.64;100.00
42411;BME280;28056;51.112;0.984;2024-01-06T05:20:56;100186.40;;;3.35;100.00
42411;BME280;28056;51.112;0.984;2024-01-06T05:23:24;100193.14;;;3.70;100.00
42411;BME280;28056;51.112;0.984;2024-01-06T05:25:51;100193.94;;;3.85;100.00
42411;BME280;28056;51.112;0.984;2024-01-06T05:28:19;100197.77;;;3.75;100.00
42411;BME280;28056;51.112;0.984;2024-01-06T05:30:47;100200.82;;;3.92;100.00
42411;BME280;28056;51.112;0.984;2024-01-06T05:33:16;100202.80;;;3.98;100.00
42411;BME280;28056;51.112;0.984;2024-01-06T05:35:43;100205.69;;;4.12;100.00
42411;BME280;28056;51.112;0.984;2024-01-06T05:38:10;100209.57;;;3.92;99.96
42411;BME280;28056;51.112;0.984;2024-01-06T05:40:38;100210.72;;;3.99;100.00
42411;BME280;28056;51.112;0.984;2024-01-06T05:43:05;100206.72;;;4.66;95.64
42411;BME280;28056;51.112;0.984;2024-01-06T05:45:32;100208.28;;;4.43;94.69
42411;BME280;28056;51.112;0.984;2024-01-06T05:48:00;100201.49;;;3.25;96.88
42411;BME280;28056;51.112;0.984;2024-01-06T05:50:27;100209.28;;;3.42;98.39
42411;BME280;28056;51.112;0.984;2024-01-06T05:52:55;100213.21;;;3.25;99.98
42411;BME280;28056;51.112;0.984;2024-01-06T05:55:23;100217.33;;;2.63;100.00
42411;BME280;28056;51.112;0.984;2024-01-06T05:57:50;100215.90;;;2.79;100.00
42411;BME280;28056;51.112;0.984;2024-01-06T06:00:17;100216.44;;;2.89;100.00
42411;BME280;28056;51.112;0.984;2024-01-06T06:02:45;100218.72;;;3.50;100.00
42411;BME280;28056;51.112;0.984;2024-01-06T06:05:12;100226.83;;;2.63;100.00
42411;BME280;28056;51.112;0.984;2024-01-06T06:07:40;100224.74;;;3.69;100.00
42411;BME280;28056;51.112;0.984;2024-01-06T06:10:10;100228.79;;;4.11;97.86
42411;BME280;28056;51.112;0.984;2024-01-06T06:12:38;100235.76;;;2.96;100.00
42411;BME280;28056;51.112;0.984;2024-01-06T06:15:06;100237.69;;;2.80;100.00
42411;BME280;28056;51.112;0.984;2024-01-06T06:17:34;100239.88;;;3.80;100.00
42411;BME280;28056;51.112;0.984;2024-01-06T06:20:02;100245.26;;;1.91;100.00
42411;BME280;28056;51.112;0.984;2024-01-06T06:22:29;100248.30;;;2.62;100.00
42411;BME280;28056;51.112;0.984;2024-01-06T06:24:56;100249.50;;;2.72;100.00
42411;BME280;28056;51.112;0.984;2024-01-06T06:27:25;100248.66;;;1.33;100.00
42411;BME280;28056;51.112;0.984;2024-01-06T06:29:52;100254.95;;;1.71;100.00
42411;BME280;28056;51.112;0.984;2024-01-06T06:32:20;100256.62;;;1.73;100.00
42411;BME280;28056;51.112;0.984;2024-01-06T06:34:48;100263.55;;;2.78;100.00
42411;BME280;28056;51.112;0.984;2024-01-06T06:37:15;100266.86;;;2.60;100.00
42411;BME280;28056;51.112;0.984;2024-01-06T06:39:43;100271.74;;;2.45;100.00
42411;BME280;28056;51.112;0.984;2024-01-06T06:42:11;100273.80;;;2.01;100.00
42411;BME280;28056;51.112;0.984;2024-01-06T06:44:39;100278.25;;;1.79;100.00
42411;BME280;28056;51.112;0.984;2024-01-06T06:47:07;100283.83;;;1.99;100.00
42411;BME280;28056;51.112;0.984;2024-01-06T06:49:35;100283.67;;;2.75;100.00
42411;BME280;28056;51.112;0.984;2024-01-06T06:52:02;100286.46;;;1.79;100.00
42411;BME280;28056;51.112;0.984;2024-01-06T06:54:30;100288.93;;;2.00;100.00
42411;BME280;28056;51.112;0.984;2024-01-06T06:56:57;100294.33;;;2.32;100.00
42411;BME280;28056;51.112;0.984;2024-01-06T06:59:24;100299.51;;;2.49;100.00
42411;BME280;28056;51.112;0.984;2024-01-06T07:01:51;100300.80;;;2.93;100.00
42411;BME280;28056;51.112;0.984;2024-01-06T07:04:18;100301.65;;;3.00;100.00
42411;BME280;28056;51.112;0.984;2024-01-06T07:06:46;100305.48;;;3.63;100.00
42411;BME280;28056;51.112;0.984;2024-01-06T07:09:13;100307.42;;;3.53;100.00
42411;BME280;28056;51.112;0.984;2024-01-06T07:11:41;100309.66;;;3.53;100.00
42411;BME280;28056;51.112;0.984;2024-01-06T07:14:08;100313.44;;;2.94;100.00
42411;BME280;28056;51.112;0.984;2024-01-06T07:16:35;100317.24;;;3.48;100.00
42411;BME280;28056;51.112;0.984;2024-01-06T07:19:03;100325.69;;;3.44;100.00
42411;BME280;28056;51.112;0.984;2024-01-06T07:21:30;100331.85;;;4.12;99.44
42411;BME280;28056;51.112;0.984;2024-01-06T07:23:57;100329.28;;;4.32;100.00
42411;BME280;28056;51.112;0.984;2024-01-06T07:26:24;100335.09;;;4.78;93.40
42411;BME280;28056;51.112;0.984;2024-01-06T07:28:51;100338.86;;;4.28;92.27
42411;BME280;28056;51.112;0.984;2024-01-06T07:31:19;100344.14;;;2.47;100.00
42411;BME280;28056;51.112;0.984;2024-01-06T07:33:46;100345.91;;;2.80;100.00
42411;BME280;28056;51.112;0.984;2024-01-06T07:36:14;100350.27;;;2.15;100.00
42411;BME280;28056;51.112;0.984;2024-01-06T07:38:41;100355.91;;;2.48;100.00
42411;BME280;28056;51.112;0.984;2024-01-06T07:41:08;100358.88;;;1.87;100.00
42411;BME280;28056;51.112;0.984;2024-01-06T07:43:35;100360.92;;;2.19;100.00
42411;BME280;28056;51.112;0.984;2024-01-06T07:46:02;100363.70;;;2.87;100.00
42411;BME280;28056;51.112;0.984;2024-01-06T07:48:30;100367.49;;;2.91;100.00
42411;BME280;28056;51.112;0.984;2024-01-06T07:50:57;100367.94;;;2.45;100.00
42411;BME280;28056;51.112;0.984;2024-01-06T07:53:24;100373.53;;;2.01;100.00
42411;BME280;28056;51.112;0.984;2024-01-06T07:55:51;100376.74;;;1.64;100.00
42411;BME280;28056;51.112;0.984;2024-01-06T07:58:19;100373.94;;;2.41;100.00
42411;BME280;28056;51.112;0.984;2024-01-06T08:00:46;100380.76;;;2.79;100.00
42411;BME280;28056;51.112;0.984;2024-01-06T08:03:13;100380.31;;;2.10;100.00
42411;BME280;28056;51.112;0.984;2024-01-06T08:05:40;100382.54;;;1.96;100.00
42411;BME280;28056;51.112;0.984;2024-01-06T08:08:08;100384.57;;;2.40;100.00
42411;BME280;28056;51.112;0.984;2024-01-06T08:10:35;100386.66;;;1.54;100.00
42411;BME280;28056;51.112;0.984;2024-01-06T08:13:02;100387.22;;;1.62;100.00
42411;BME280;28056;51.112;0.984;2024-01-06T08:15:30;100389.40;;;1.82;100.00
42411;BME280;28056;51.112;0.984;2024-01-06T08:17:57;100394.20;;;1.42;100.00
42411;BME280;28056;51.112;0.984;2024-01-06T08:20:25;100402.38;;;2.16;100.00
42411;BME280;28056;51.112;0.984;2024-01-06T08:22:52;100406.57;;;1.40;100.00
42411;BME280;28056;51.112;0.984;2024-01-06T08:25:20;100408.50;;;1.47;100.00
42411;BME280;28056;51.112;0.984;2024-01-06T08:27:47;100415.97;;;2.20;100.00
42411;BME280;28056;51.112;0.984;2024-01-06T08:30:15;100417.92;;;2.16;100.00
42411;BME280;28056;51.112;0.984;2024-01-06T08:32:42;100422.63;;;1.65;100.00
42411;BME280;28056;51.112;0.984;2024-01-06T08:35:10;100429.23;;;1.51;100.00
42411;BME280;28056;51.112;0.984;2024-01-06T08:37:37;100434.95;;;2.18;100.00
42411;BME280;28056;51.112;0.984;2024-01-06T08:40:05;100437.98;;;1.95;100.00
42411;BME280;28056;51.112;0.984;2024-01-06T08:42:33;100442.04;;;1.74;100.00
42411;BME280;28056;51.112;0.984;2024-01-06T08:45:00;100447.84;;;1.88;100.00
42411;BME280;28056;51.112;0.984;2024-01-06T08:47:27;100449.06;;;2.22;100.00
42411;BME280;28056;51.112;0.984;2024-01-06T08:49:54;100455.96;;;2.30;100.00
42411;BME280;28056;51.112;0.984;2024-01-06T08:52:21;100455.26;;;1.86;100.00
42411;BME280;28056;51.112;0.984;2024-01-06T08:54:48;100460.14;;;1.34;100.00
42411;BME280;28056;51.112;0.984;2024-01-06T08:57:16;100465.11;;;1.92;100.00
42411;BME280;28056;51.112;0.984;2024-01-06T08:59:43;100462.73;;;2.09;100.00
42411;BME280;28056;51.112;0.984;2024-01-06T09:02:10;100470.33;;;2.17;100.00
42411;BME280;28056;51.112;0.984;2024-01-06T09:04:37;100475.91;;;2.12;100.00
42411;BME280;28056;51.112;0.984;2024-01-06T09:07:05;100478.72;;;1.99;100.00
42411;BME280;28056;51.112;0.984;2024-01-06T09:09:32;100480.55;;;2.43;100.00
42411;BME280;28056;51.112;0.984;2024-01-06T09:11:59;100487.41;;;2.08;100.00
42411;BME280;28056;51.112;0.984;2024-01-06T09:14:27;100491.64;;;2.37;100.00
42411;BME280;28056;51.112;0.984;2024-01-06T09:16:54;100498.00;;;2.35;100.00
42411;BME280;28056;51.112;0.984;2024-01-06T09:19:21;100496.82;;;1.77;100.00
42411;BME280;28056;51.112;0.984;2024-01-06T09:21:48;100497.54;;;2.19;100.00
42411;BME280;28056;51.112;0.984;2024-01-06T09:24:15;100503.23;;;2.56;100.00
42411;BME280;28056;51.112;0.984;2024-01-06T09:26:43;100501.71;;;2.01;100.00
42411;BME280;28056;51.112;0.984;2024-01-06T09:29:09;100508.29;;;1.40;100.00
42411;BME280;28056;51.112;0.984;2024-01-06T09:31:37;100510.29;;;2.07;100.00
42411;BME280;28056;51.112;0.984;2024-01-06T09:34:08;100510.19;;;2.26;100.00
42411;BME280;28056;51.112;0.984;2024-01-06T09:36:36;100516.65;;;1.86;100.00
42411;BME280;28056;51.112;0.984;2024-01-06T09:39:04;100524.43;;;3.16;100.00
42411;BME280;28056;51.112;0.984;2024-01-06T09:41:31;100521.64;;;1.72;100.00
42411;BME280;28056;51.112;0.984;2024-01-06T09:43:59;100527.34;;;1.70;100.00
42411;BME280;28056;51.112;0.984;2024-01-06T09:46:27;100533.72;;;2.04;100.00
42411;BME280;28056;51.112;0.984;2024-01-06T09:48:56;100537.47;;;1.40;100.00
42411;BME280;28056;51.112;0.984;2024-01-06T09:51:24;100542.42;;;1.44;100.00
42411;BME280;28056;51.112;0.984;2024-01-06T09:53:57;100549.53;;;1.92;100.00
42411;BME280;28056;51.112;0.984;2024-01-06T09:56:25;100549.74;;;1.66;100.00
42411;BME280;28056;51.112;0.984;2024-01-06T09:58:53;100557.54;;;1.66;100.00
42411;BME280;28056;51.112;0.984;2024-01-06T10:01:22;100565.38;;;2.02;100.00
42411;BME280;28056;51.112;0.984;2024-01-06T10:03:49;100568.09;;;2.58;100.00
42411;BME280;28056;51.112;0.984;2024-01-06T10:06:18;100572.61;;;2.12;100.00
42411;BME280;28056;51.112;0.984;2024-01-06T10:08:48;100577.42;;;2.76;100.00
42411;BME280;28056;51.112;0.984;2024-01-06T10:11:16;100583.55;;;2.91;100.00
42411;BME280;28056;51.112;0.984;2024-01-06T10:13:43;100584.43;;;2.26;100.00
42411;BME280;28056;51.112;0.984;2024-01-06T10:16:10;100588.28;;;3.22;100.00
42411;BME280;28056;51.112;0.984;2024-01-06T10:18:38;100593.57;;;3.40;100.00
42411;BME280;28056;51.112;0.984;2024-01-06T10:21:06;100593.45;;;3.87;100.00
42411;BME280;28056;51.112;0.984;2024-01-06T10:23:34;100598.10;;;3.84;100.00
42411;BME280;28056;51.112;0.984;2024-01-06T10:26:01;100599.32;;;3.20;100.00
42411;BME280;28056;51.112;0.984;2024-01-06T10:28:29;100597.51;;;2.36;100.00
42411;BME280;28056;51.112;0.984;2024-01-06T10:30:58;100599.83;;;2.24;100.00
42411;BME280;28056;51.112;0.984;2024-01-06T10:33:33;100600.48;;;2.88;100.00
42411;BME280;28056;51.112;0.984;2024-01-06T10:36:01;100600.55;;;2.21;100.00
42411;BME280;28056;51.112;0.984;2024-01-06T10:38:29;100605.88;;;2.27;100.00
42411;BME280;28056;51.112;0.984;2024-01-06T10:40:57;100611.85;;;2.19;100.00
42411;BME280;28056;51.112;0.984;2024-01-06T10:43:25;100609.25;;;2.34;100.00
42411;BME280;28056;51.112;0.984;2024-01-06T10:45:53;100612.35;;;1.81;100.00
42411;BME280;28056;51.112;0.984;2024-01-06T10:48:24;100612.34;;;2.17;100.00
42411;BME280;28056;51.112;0.984;2024-01-06T10:50:53;100613.91;;;1.90;100.00
42411;BME280;28056;51.112;0.984;2024-01-06T10:53:22;100614.45;;;2.44;100.00
42411;BME280;28056;51.112;0.984;2024-01-06T10:55:52;100611.34;;;2.55;100.00
42411;BME280;28056;51.112;0.984;2024-01-06T10:58:20;100615.62;;;2.17;100.00
42411;BME280;28056;51.112;0.984;2024-01-06T11:00:48;100617.99;;;2.03;100.00
42411;BME280;28056;51.112;0.984;2024-01-06T11:03:17;100621.64;;;2.45;100.00
42411;BME280;28056;51.112;0.984;2024-01-06T11:05:45;100623.29;;;2.15;100.00
42411;BME280;28056;51.112;0.984;2024-01-06T11:08:13;100626.61;;;2.31;100.00
42411;BME280;28056;51.112;0.984;2024-01-06T11:10:44;100622.49;;;2.50;100.00
42411;BME280;28056;51.112;0.984;2024-01-06T11:13:13;100627.73;;;2.61;100.00
42411;BME280;28056;51.112;0.984;2024-01-06T11:15:43;100625.99;;;2.70;100.00
42411;BME280;28056;51.112;0.984;2024-01-06T11:18:31;100630.46;;;3.50;100.00
42411;BME280;28056;51.112;0.984;2024-01-06T11:21:16;100626.98;;;2.70;100.00
42411;BME280;28056;51.112;0.984;2024-01-06T11:23:45;100630.04;;;4.49;100.00
42411;BME280;28056;51.112;0.984;2024-01-06T11:26:14;100629.96;;;4.13;100.00
42411;BME280;28056;51.112;0.984;2024-01-06T11:28:45;100627.23;;;4.33;100.00
42411;BME280;28056;51.112;0.984;2024-01-06T11:31:13;100632.78;;;4.56;100.00
42411;BME280;28056;51.112;0.984;2024-01-06T11:33:42;100633.37;;;5.90;100.00
42411;BME280;28056;51.112;0.984;2024-01-06T11:36:09;100633.53;;;5.64;100.00
42411;BME280;28056;51.112;0.984;2024-01-06T11:38:38;100623.09;;;3.88;100.00
42411;BME280;28056;51.112;0.984;2024-01-06T11:41:07;100630.10;;;4.23;100.00
42411;BME280;28056;51.112;0.984;2024-01-06T11:43:35;100635.52;;;4.68;100.00
42411;BME280;28056;51.112;0.984;2024-01-06T11:46:05;100635.21;;;4.86;96.50
42411;BME280;28056;51.112;0.984;2024-01-06T11:48:34;100635.99;;;5.48;97.38
42411;BME280;28056;51.112;0.984;2024-01-06T11:51:03;100631.31;;;7.16;93.51
42411;BME280;28056;51.112;0.984;2024-01-06T11:53:30;100631.50;;;8.49;83.55
42411;BME280;28056;51.112;0.984;2024-01-06T11:55:57;100629.62;;;7.37;83.34
42411;BME280;28056;51.112;0.984;2024-01-06T11:58:27;100632.17;;;7.77;81.56
42411;BME280;28056;51.112;0.984;2024-01-06T12:00:57;100629.87;;;6.89;84.81
42411;BME280;28056;51.112;0.984;2024-01-06T12:03:24;100631.18;;;5.29;89.73
42411;BME280;28056;51.112;0.984;2024-01-06T12:05:59;100627.37;;;3.70;97.65
42411;BME280;28056;51.112;0.984;2024-01-06T12:08:26;100626.02;;;4.81;100.00
42411;BME280;28056;51.112;0.984;2024-01-06T12:11:02;100625.99;;;4.97;100.00
42411;BME280;28056;51.112;0.984;2024-01-06T12:13:30;100624.20;;;5.63;96.40
42411;BME280;28056;51.112;0.984;2024-01-06T12:15:57;100618.85;;;5.86;91.04
42411;BME280;28056;51.112;0.984;2024-01-06T12:18:25;100616.09;;;5.94;88.94
42411;BME280;28056;51.112;0.984;2024-01-06T12:20:53;100610.06;;;8.29;77.74
42411;BME280;28056;51.112;0.984;2024-01-06T12:23:24;100617.00;;;9.01;70.00
42411;BME280;28056;51.112;0.984;2024-01-06T12:25:52;100609.96;;;8.58;70.42
42411;BME280;28056;51.112;0.984;2024-01-06T12:28:20;100615.12;;;9.43;65.47
42411;BME280;28056;51.112;0.984;2024-01-06T12:30:48;100615.48;;;7.86;69.80
42411;BME280;28056;51.112;0.984;2024-01-06T12:33:15;100618.06;;;7.63;68.62
42411;BME280;28056;51.112;0.984;2024-01-06T12:35:43;100620.12;;;8.39;67.58
42411;BME280;28056;51.112;0.984;2024-01-06T12:38:11;100625.09;;;8.29;66.62
42411;BME280;28056;51.112;0.984;2024-01-06T12:40:39;100625.53;;;7.37;70.40
42411;BME280;28056;51.112;0.984;2024-01-06T12:43:06;100629.83;;;6.81;74.59
42411;BME280;28056;51.112;0.984;2024-01-06T12:45:34;100628.22;;;6.91;74.64
42411;BME280;28056;51.112;0.984;2024-01-06T12:48:02;100631.95;;;6.14;80.10
42411;BME280;28056;51.112;0.984;2024-01-06T12:50:30;100628.22;;;6.24;78.79
42411;BME280;28056;51.112;0.984;2024-01-06T12:52:58;100621.48;;;7.34;79.38
42411;BME280;28056;51.112;0.984;2024-01-06T12:55:25;100629.31;;;4.91;88.58
42411;BME280;28056;51.112;0.984;2024-01-06T12:57:53;100633.82;;;4.72;90.83